Colora, MD (21917)

2:20 AM EDT on September 03, 2015 (GMT -0400)
Colora Weather | | Change Station
CLOSE
Current Station
Personal Weather Station
Location: Colora, MD
Elevation: 348 ft
Nearby Weather Stations

Elev 348 ft 39.67 °N, 76.09 °W | Updated 26 seconds ago

Clear
Clear
69.0 °F
Feels Like 69.0 °F
N
0.0
Wind Variable Wind from NW
Gusts 0.0 mph

Today
High -- | Low -- °F
--% Chance of Precip.
Yesterday
High -- | Low -- °F
Precip. -- in
6:34 AM 7:32 PM
Waning Gibbous, 73% visible
Pressure 29.90 in
Visibility 7.0 miles
Clouds Clear
Dew Point 68 °F
Humidity 95%
Rainfall 0.00 in
Snow Depth Not available.
UV 0 out of 12
Pollen 9.80 out of 12
Air Quality Not available.
Flu Activity Not available.
METAR KILG 030551Z 29005KT 7SM CLR 22/18 A2990 RMK AO2 SLP124 T02220183 10283 20211 58007 $
Pressure 29.90 in
Visibility 7.0 miles
Clouds Clear
Dew Point 68 °F
Humidity 95%
Rainfall 0.00 in
Snow Depth Not available.
UV 0 out of 12
Pollen 9.80 out of 12
Air Quality Not available.
Flu Activity Not available.
METAR KILG 030551Z 29005KT 7SM CLR 22/18 A2990 RMK AO2 SLP124 T02220183 10283 20211 58007 $

10-Day Weather Forecast

×

Almanac

Astronomy

Sep. 03, 2015 Rise Set
Actual Time
Civil Twilight
Nautical Twilight
Astronomical Twilight
Moon
Length of Visible Light
Length of Day
Tomorrow will be .
, % of the Moon is Illuminated

Today's Extremes

State Highs State Lows

Community

WunderPhotos

Upload Photos

1,851,913 photos uploaded!

WunderBlogs® & News

Nearby

Air Quality

  Air Quality AQ Index Pollutant
Not available.

Snow Depth

Station Depth Elevation

Earthquake Activity

City Distance Mag. Time & Date
Minimum magnitude displayed is 2.5.

Coastal Water Temperatures

Place Temperature

Stations

Nearby Weather Stations

Station Location Temp. Windchill Dew Point Humidity Wind Precip. Elev Updated Type